Time;durP1;ratioP1;P1;durP2;ratioP2;P2;SDS_P1;SDS_P2;PMS_P1;PMS_P2;Temp;Humidity;BMP_temperature;BMP_pressure;BME280_temperature;BME280_humidity;BME280_pressure;Samples;Min_cycle;Max_cycle;Signal;HPM_P1;HPM_P2
2023/02/25 00:01:43;;;;;;;4.07;3.67;;;;;;;7.90;81.77;97563.94;5021104;27;102825;-68
2023/02/25 00:04:30;;;;;;;4.77;3.17;;;;;;;8.04;81.43;97561.88;5019919;27;102991;-68
2023/02/25 00:06:58;;;;;;;3.83;3.43;;;;;;;8.00;81.64;97572.78;5021089;27;103989;-68
2023/02/25 00:09:27;;;;;;;6.30;4.43;;;;;;;7.49;83.21;97560.09;5019695;27;103215;-68
2023/02/25 00:11:55;;;;;;;4.50;3.37;;;;;;;7.73;83.77;97564.41;5017836;27;102890;-69
2023/02/25 00:14:23;;;;;;;4.67;3.90;;;;;;;7.69;82.98;97568.25;5026484;27;103054;-70
2023/02/25 00:16:54;;;;;;;5.83;4.73;;;;;;;7.52;81.69;97559.88;5024257;27;103269;-70
2023/02/25 00:19:22;;;;;;;5.07;4.30;;;;;;;7.56;80.81;97561.31;5023588;27;104169;-70
2023/02/25 00:21:50;;;;;;;6.00;4.83;;;;;;;7.68;80.13;97558.69;5018218;27;102669;-70
2023/02/25 00:24:18;;;;;;;8.53;4.73;;;;;;;7.50;78.57;97566.22;5021717;27;102867;-70
2023/02/25 00:26:47;;;;;;;6.07;4.87;;;;;;;7.73;80.11;97556.53;5020413;27;104314;-70
2023/02/25 00:29:15;;;;;;;6.53;4.90;;;;;;;7.39;78.93;97556.53;5024397;27;104260;-70
2023/02/25 00:31:45;;;;;;;8.07;5.10;;;;;;;6.77;74.96;97573.59;5021861;27;102742;-70
2023/02/25 00:34:14;;;;;;;5.83;4.90;;;;;;;7.33;77.34;97564.88;5017956;27;102930;-70
2023/02/25 00:36:42;;;;;;;4.77;4.27;;;;;;;6.91;75.49;97568.97;5020627;27;104243;-70
2023/02/25 00:39:10;;;;;;;4.30;3.67;;;;;;;6.83;74.52;97555.59;5026068;27;103158;-70
2023/02/25 00:41:38;;;;;;;5.30;3.60;;;;;;;6.71;74.69;97566.19;5022228;27;102972;-70
2023/02/25 00:44:07;;;;;;;6.10;3.90;;;;;;;6.48;74.99;97580.16;5022752;27;104023;-70
2023/02/25 00:46:35;;;;;;;5.73;4.10;;;;;;;6.75;75.38;97568.47;5018752;27;104055;-70
2023/02/25 00:49:05;;;;;;;5.33;4.03;;;;;;;7.03;75.31;97571.63;5021368;27;104184;-70
2023/02/25 00:51:34;;;;;;;7.53;4.17;;;;;;;7.07;76.05;97573.09;5018406;27;102875;-70
2023/02/25 00:54:01;;;;;;;8.17;4.47;;;;;;;6.89;75.63;97575.31;5022788;27;103711;-70
2023/02/25 00:56:29;;;;;;;7.23;4.30;;;;;;;6.82;75.02;97576.72;5020988;27;103149;-70
2023/02/25 00:58:59;;;;;;;5.70;3.70;;;;;;;7.01;75.11;97566.50;5029647;27;103997;-70
2023/02/25 01:01:30;;;;;;;5.77;3.50;;;;;;;6.86;74.88;97565.88;5023834;27;103913;-70
2023/02/25 01:03:59;;;;;;;5.07;4.10;;;;;;;6.68;76.36;97566.44;5023890;27;103174;-70
2023/02/25 01:06:28;;;;;;;6.63;3.57;;;;;;;6.87;76.18;97579.84;5024026;27;103415;-70
2023/02/25 01:08:57;;;;;;;5.83;3.73;;;;;;;6.77;77.49;97577.06;5032821;27;103373;-70
2023/02/25 01:11:28;;;;;;;4.70;4.17;;;;;;;6.91;76.51;97594.41;5037917;27;102804;-69
2023/02/25 01:13:57;;;;;;;4.83;4.20;;;;;;;6.73;77.32;97590.53;5035105;27;104276;-70
2023/02/25 01:16:29;;;;;;;5.97;4.40;;;;;;;6.60;77.83;97590.59;5037900;27;104007;-70
2023/02/25 01:18:59;;;;;;;6.00;3.90;;;;;;;6.82;76.92;97605.59;5033340;27;103285;-70
2023/02/25 01:21:29;;;;;;;3.90;3.47;;;;;;;6.98;76.50;97593.00;5036059;27;102721;-70
2023/02/25 01:23:59;;;;;;;4.67;3.73;;;;;;;6.77;75.64;97586.72;5031209;27;104581;-70
2023/02/25 01:26:29;;;;;;;6.20;3.00;;;;;;;6.83;76.09;97602.00;5033953;27;103361;-70
2023/02/25 01:28:57;;;;;;;3.63;2.70;;;;;;;6.99;75.47;97598.13;5031343;27;103200;-69
2023/02/25 01:31:28;;;;;;;4.00;2.80;;;;;;;6.52;74.79;97586.84;5035922;27;102721;-70
2023/02/25 01:33:58;;;;;;;4.30;2.80;;;;;;;6.78;73.96;97597.13;5034706;27;102791;-70
2023/02/25 01:36:26;;;;;;;4.90;2.70;;;;;;;6.55;74.60;97612.88;5036345;27;103722;-70
2023/02/25 01:38:55;;;;;;;4.47;3.13;;;;;;;6.67;74.71;97606.72;5032852;27;103332;-70
2023/02/25 01:41:24;;;;;;;4.20;2.90;;;;;;;6.89;74.51;97625.19;5028014;27;102650;-69
2023/02/25 01:44:08;;;;;;;4.00;3.20;;;;;;;6.80;74.84;97618.00;5033167;27;106498;-69
2023/02/25 01:46:38;;;;;;;4.83;4.10;;;;;;;6.83;74.68;97620.38;5034331;27;103959;-69
2023/02/25 01:49:11;;;;;;;5.40;3.37;;;;;;;6.91;74.72;97615.41;5034761;27;104015;-70
2023/02/25 01:51:38;;;;;;;3.90;3.00;;;;;;;7.12;74.53;97618.22;5031908;27;103092;-71
2023/02/25 01:54:10;;;;;;;4.37;3.10;;;;;;;6.83;74.56;97610.72;5029450;27;103271;-70
2023/02/25 01:56:41;;;;;;;5.80;2.70;;;;;;;6.89;73.65;97609.44;5033608;27;104096;-70
2023/02/25 01:59:09;;;;;;;3.40;2.80;;;;;;;6.28;74.24;97613.94;5035650;27;103845;-70
2023/02/25 02:01:42;;;;;;;5.87;2.97;;;;;;;6.38;74.81;97609.69;5034934;27;102675;-71
2023/02/25 02:04:13;;;;;;;4.43;3.20;;;;;;;6.30;72.81;97604.16;5033115;27;102844;-70
2023/02/25 02:06:43;;;;;;;3.40;2.73;;;;;;;6.34;73.65;97600.34;5029495;27;104308;-70
2023/02/25 02:09:15;;;;;;;5.07;2.70;;;;;;;6.30;73.18;97592.84;5036133;27;104359;-69
2023/02/25 02:11:43;;;;;;;4.17;3.03;;;;;;;6.32;73.35;97590.94;5041371;27;102648;-70
2023/02/25 02:14:14;;;;;;;2.87;2.57;;;;;;;6.31;72.82;97592.75;5036758;27;102838;-70
2023/02/25 02:17:18;;;;;;;2.50;2.00;;;;;;;6.68;72.93;97603.97;5036196;27;104787;-70
2023/02/25 02:20:12;;;;;;;4.53;2.63;;;;;;;6.53;71.44;97615.63;4995139;27;104186;-70
2023/02/25 02:22:54;;;;;;;3.90;2.67;;;;;;;6.74;71.92;97607.94;5053563;27;102627;-70
2023/02/25 02:25:56;;;;;;;5.27;2.50;;;;;;;6.65;71.90;97606.81;5037151;27;103130;-70
2023/02/25 02:28:52;;;;;;;3.43;2.40;;;;;;;6.39;71.99;97608.75;5035928;27;103249;-70
2023/02/25 02:31:47;;;;;;;3.93;2.53;;;;;;;6.66;71.12;97613.75;5035455;27;103233;-70
2023/02/25 02:34:32;;;;;;;3.57;2.73;;;;;;;6.78;71.59;97610.25;5055786;27;102721;-69
2023/02/25 02:37:12;;;;;;;4.50;2.70;;;;;;;6.62;71.41;97614.97;5036523;27;102872;-69
2023/02/25 02:39:51;;;;;;;3.93;2.20;;;;;;;7.00;71.84;97614.72;5037908;27;103132;-70
2023/02/25 02:42:28;;;;;;;5.07;2.23;;;;;;;6.93;71.17;97624.03;5035639;27;104295;-70
2023/02/25 02:45:02;;;;;;;3.43;2.63;;;;;;;6.95;71.67;97632.63;5033564;27;103761;-70
2023/02/25 02:47:34;;;;;;;4.47;2.70;;;;;;;7.06;71.98;97632.66;5032315;27;103690;-70
2023/02/25 02:50:06;;;;;;;5.27;2.70;;;;;;;6.85;72.17;97637.69;5036088;27;103809;-70
2023/02/25 02:52:40;;;;;;;6.57;2.73;;;;;;;6.91;72.95;97636.41;5035830;27;104355;-70
2023/02/25 02:55:21;;;;;;;4.73;2.80;;;;;;;7.08;72.24;97632.53;5052370;27;102865;-70
2023/02/25 02:57:55;;;;;;;2.80;2.30;;;;;;;7.22;72.32;97632.31;5058390;27;103965;-70
2023/02/25 03:00:30;;;;;;;2.97;2.43;;;;;;;7.07;72.85;97634.34;5033863;27;103959;-70
2023/02/25 03:03:07;;;;;;;3.60;2.50;;;;;;;7.15;71.92;97628.50;5032138;27;103168;-68
2023/02/25 03:05:37;;;;;;;4.07;2.40;;;;;;;7.21;71.72;97626.25;5034422;27;103962;-68
2023/02/25 03:08:10;;;;;;;3.77;2.50;;;;;;;7.03;71.91;97637.28;5034811;27;103577;-68
2023/02/25 03:10:38;;;;;;;4.53;2.80;;;;;;;6.93;71.64;97629.28;5032780;27;104331;-68
2023/02/25 03:13:06;;;;;;;2.90;2.47;;;;;;;6.96;72.50;97634.31;5050904;27;106027;-68
2023/02/25 03:15:39;;;;;;;4.17;2.87;;;;;;;6.69;72.04;97639.78;5032604;27;102863;-68
2023/02/25 03:18:16;;;;;;;3.23;2.63;;;;;;;6.76;71.22;97638.41;5035495;27;102613;-68
2023/02/25 03:20:48;;;;;;;4.70;2.80;;;;;;;6.65;71.55;97646.19;5040387;27;103355;-68
2023/02/25 03:23:22;;;;;;;3.07;2.77;;;;;;;6.40;71.54;97646.28;5032867;27;105020;-68
2023/02/25 03:25:53;;;;;;;7.00;2.93;;;;;;;6.31;71.48;97649.59;5068593;27;102741;-68
2023/02/25 03:28:26;;;;;;;5.60;2.67;;;;;;;6.60;71.17;97652.72;5035095;27;105197;-68
2023/02/25 03:31:05;;;;;;;4.13;2.60;;;;;;;6.76;70.52;97648.06;5048535;27;105424;-68
2023/02/25 03:33:39;;;;;;;3.07;2.23;;;;;;;6.98;71.08;97653.41;5033955;27;103183;-68
2023/02/25 03:36:12;;;;;;;3.03;2.23;;;;;;;6.63;70.05;97655.13;5031207;27;102590;-68
2023/02/25 03:38:44;;;;;;;3.03;2.30;;;;;;;6.84;71.05;97659.69;5038342;27;103991;-68
2023/02/25 03:41:14;;;;;;;5.07;2.37;;;;;;;6.74;71.10;97660.44;5036153;27;104190;-68
2023/02/25 03:43:46;;;;;;;3.60;2.60;;;;;;;6.81;70.98;97659.06;5033697;27;106187;-68
2023/02/25 03:46:15;;;;;;;3.93;2.70;;;;;;;6.79;70.63;97671.47;5028348;27;103460;-68
2023/02/25 03:48:45;;;;;;;6.27;2.47;;;;;;;6.55;71.04;97666.19;5033833;27;104141;-68
2023/02/25 03:51:17;;;;;;;3.03;2.30;;;;;;;6.71;71.42;97660.69;5034533;27;105017;-68
2023/02/25 03:53:49;;;;;;;3.77;2.23;;;;;;;6.55;71.07;97665.34;5035604;27;103390;-68
2023/02/25 03:56:23;;;;;;;2.50;2.07;;;;;;;6.43;71.07;97673.16;5029604;27;103231;-68
2023/02/25 03:58:51;;;;;;;4.57;2.03;;;;;;;6.20;70.70;97670.50;5032635;27;102580;-68
2023/02/25 04:01:26;;;;;;;4.00;2.27;;;;;;;6.24;70.95;97672.78;5032574;27;104099;-67
2023/02/25 04:03:55;;;;;;;2.87;2.07;;;;;;;6.23;71.62;97686.84;5035172;27;104610;-69
2023/02/25 04:06:24;;;;;;;3.63;1.70;;;;;;;6.10;70.93;97686.03;5046415;27;102594;-68
2023/02/25 04:08:52;;;;;;;1.63;1.30;;;;;;;6.02;70.61;97688.38;5030903;27;103615;-70
2023/02/25 04:11:20;;;;;;;4.57;1.30;;;;;;;5.96;70.33;97680.94;5035591;27;104336;-70
2023/02/25 04:13:49;;;;;;;6.03;1.73;;;;;;;6.18;70.20;97686.34;5036991;27;103145;-68
2023/02/25 04:16:17;;;;;;;3.20;1.50;;;;;;;6.07;69.20;97690.66;5036617;27;102608;-68
2023/02/25 04:18:46;;;;;;;3.43;1.10;;;;;;;6.10;70.12;97696.53;5037606;27;102937;-68
2023/02/25 04:21:26;;;;;;;3.50;1.50;;;;;;;6.14;69.37;97690.13;5037111;27;105625;-68
2023/02/25 04:23:54;;;;;;;3.73;1.07;;;;;;;6.26;69.38;97689.25;5034577;27;103417;-68
2023/02/25 04:26:22;;;;;;;4.10;1.87;;;;;;;5.77;70.13;97685.75;5031690;27;102680;-69
2023/02/25 04:28:50;;;;;;;3.27;1.30;;;;;;;5.95;70.49;97694.16;5034975;27;103490;-68
2023/02/25 04:31:18;;;;;;;1.83;1.10;;;;;;;6.05;69.48;97693.41;5035212;27;103304;-68
2023/02/25 04:33:48;;;;;;;4.07;1.50;;;;;;;5.82;69.15;97697.59;5033368;27;104178;-68
2023/02/25 04:36:29;;;;;;;2.03;1.40;;;;;;;6.08;69.11;97693.19;5037685;27;102655;-68
2023/02/25 04:38:59;;;;;;;3.90;1.50;;;;;;;6.29;69.36;97701.31;5033955;27;103972;-68
2023/02/25 04:41:30;;;;;;;1.27;1.13;;;;;;;6.34;68.72;97705.28;5035788;27;103665;-70
2023/02/25 04:43:58;;;;;;;4.53;1.37;;;;;;;6.05;68.90;97709.13;5034584;27;103284;-68
2023/02/25 04:46:26;;;;;;;4.27;1.40;;;;;;;6.05;69.07;97703.03;5032854;27;102641;-70
2023/02/25 04:48:54;;;;;;;6.30;1.77;;;;;;;6.03;68.68;97700.53;5033063;27;103952;-70
2023/02/25 04:51:24;;;;;;;4.60;1.50;;;;;;;6.10;67.90;97706.19;5030552;27;103012;-70
2023/02/25 04:53:53;;;;;;;2.80;1.50;;;;;;;6.17;68.73;97724.03;5034372;27;103255;-70
2023/02/25 04:56:21;;;;;;;3.20;1.50;;;;;;;6.09;68.68;97709.75;5036543;27;102566;-71
2023/02/25 04:58:50;;;;;;;5.83;1.30;;;;;;;5.95;69.13;97708.06;5034147;27;103903;-70
2023/02/25 05:01:18;;;;;;;3.53;1.43;;;;;;;6.10;68.63;97712.25;5044233;27;103894;-70
2023/02/25 05:03:46;;;;;;;2.60;1.00;;;;;;;5.92;69.18;97718.81;5040877;27;103340;-69
2023/02/25 05:06:13;;;;;;;2.13;1.33;;;;;;;6.13;68.09;97722.53;5038837;27;102533;-69
2023/02/25 05:08:41;;;;;;;2.73;1.60;;;;;;;6.26;68.27;97710.25;5034447;27;103073;-69
2023/02/25 05:11:10;;;;;;;4.47;1.53;;;;;;;6.01;67.91;97712.91;5039490;27;103332;-69
2023/02/25 05:13:38;;;;;;;6.03;1.53;;;;;;;5.88;68.00;97708.63;5040866;27;103451;-69
2023/02/25 05:16:08;;;;;;;2.33;1.20;;;;;;;6.15;67.84;97709.31;5040601;27;102765;-69
2023/02/25 05:18:37;;;;;;;3.77;1.33;;;;;;;6.17;67.71;97707.44;5031442;27;104082;-69
2023/02/25 05:21:08;;;;;;;3.53;1.30;;;;;;;6.22;67.44;97700.94;5034754;27;103235;-69
2023/02/25 05:23:36;;;;;;;3.87;1.80;;;;;;;6.22;67.01;97706.16;5034887;27;103536;-67
2023/02/25 05:26:04;;;;;;;3.13;1.47;;;;;;;6.19;67.38;97710.78;5035636;27;102703;-69
2023/02/25 05:28:33;;;;;;;3.17;1.47;;;;;;;6.12;66.26;97714.81;5037878;27;104004;-68
2023/02/25 05:31:04;;;;;;;5.10;1.30;;;;;;;6.15;66.02;97718.03;5035334;27;103545;-69
2023/02/25 05:33:32;;;;;;;1.67;1.20;;;;;;;6.30;65.95;97714.34;5038908;27;102495;-68
2023/02/25 05:36:00;;;;;;;2.90;1.10;;;;;;;5.97;64.86;97706.22;5032640;27;102754;-66
2023/02/25 05:38:27;;;;;;;1.90;1.17;;;;;;;6.02;66.31;97709.34;5036436;27;102646;-67
2023/02/25 05:40:59;;;;;;;3.27;1.20;;;;;;;5.76;64.83;97712.88;5035772;27;103784;-67
2023/02/25 05:43:27;;;;;;;3.17;1.23;;;;;;;5.98;65.26;97707.88;5032641;27;103237;-67
2023/02/25 05:45:57;;;;;;;2.60;1.10;;;;;;;6.00;64.81;97706.00;5063465;27;103782;-67
2023/02/25 05:48:27;;;;;;;2.47;1.20;;;;;;;5.98;66.00;97710.50;5035608;27;102590;-68
2023/02/25 05:51:01;;;;;;;4.27;1.27;;;;;;;6.04;65.06;97712.69;5034166;27;104117;-66
2023/02/25 05:53:32;;;;;;;3.50;0.87;;;;;;;6.15;65.22;97715.41;5035576;27;103316;-69
2023/02/25 05:56:05;;;;;;;5.63;1.30;;;;;;;6.19;65.05;97716.88;5034992;27;102721;-72
2023/02/25 05:58:33;;;;;;;3.13;0.90;;;;;;;6.37;64.40;97720.81;5035613;27;104034;-72
2023/02/25 06:01:09;;;;;;;3.67;1.13;;;;;;;6.29;64.17;97723.13;5036912;27;104033;-72
2023/02/25 06:03:37;;;;;;;2.00;0.90;;;;;;;6.32;65.22;97732.56;5036772;27;103144;-71
2023/02/25 06:06:06;;;;;;;3.03;1.10;;;;;;;6.48;65.65;97721.84;5039558;27;102678;-71
2023/02/25 06:08:34;;;;;;;1.37;0.70;;;;;;;6.48;65.60;97724.47;5044184;27;102599;-70
2023/02/25 06:11:05;;;;;;;2.00;1.33;;;;;;;6.52;64.49;97724.13;5041974;27;103944;-70
2023/02/25 06:13:35;;;;;;;2.60;1.30;;;;;;;6.43;64.67;97731.84;5043178;27;103472;-70
2023/02/25 06:16:05;;;;;;;2.00;1.10;;;;;;;6.46;64.72;97734.25;5046969;27;102678;-70
2023/02/25 06:18:35;;;;;;;1.20;0.83;;;;;;;6.53;64.75;97738.09;5040715;27;104078;-71
2023/02/25 06:21:05;;;;;;;3.37;1.33;;;;;;;6.39;64.25;97728.59;5039765;27;104165;-70
2023/02/25 06:23:34;;;;;;;1.70;1.00;;;;;;;6.48;64.48;97724.47;5041219;27;103337;-72
2023/02/25 06:26:06;;;;;;;2.60;1.00;;;;;;;6.67;64.89;97732.72;5045623;27;102608;-72
2023/02/25 06:28:34;;;;;;;2.60;0.80;;;;;;;6.66;63.60;97741.53;5041767;27;103944;-72
2023/02/25 06:31:07;;;;;;;2.40;1.13;;;;;;;6.61;63.92;97746.25;5041054;27;103612;-70
2023/02/25 06:33:38;;;;;;;3.80;1.60;;;;;;;6.65;64.35;97735.44;5041167;27;103213;-70
2023/02/25 06:36:09;;;;;;;3.87;1.10;;;;;;;6.40;64.21;97741.59;5052683;27;102754;-71
2023/02/25 06:38:37;;;;;;;2.17;0.90;;;;;;;6.49;63.89;97744.50;5040105;27;103656;-70
2023/02/25 06:41:06;;;;;;;3.07;0.97;;;;;;;6.57;65.21;97744.81;5041992;27;103235;-71
2023/02/25 06:43:37;;;;;;;3.43;1.57;;;;;;;6.34;64.38;97747.25;5044154;27;103167;-71
2023/02/25 06:46:07;;;;;;;4.27;1.00;;;;;;;6.43;65.37;97746.63;5044768;27;102568;-71
2023/02/25 06:48:35;;;;;;;4.70;1.30;;;;;;;6.14;65.10;97745.22;5041438;27;102740;-70
2023/02/25 06:51:07;;;;;;;3.50;1.20;;;;;;;5.71;64.58;97742.03;5039715;27;104037;-70
2023/02/25 06:53:35;;;;;;;3.40;1.03;;;;;;;6.11;64.89;97742.81;5041591;27;103191;-70
2023/02/25 06:56:04;;;;;;;3.67;1.17;;;;;;;6.07;64.73;97741.31;5036901;27;102707;-73
2023/02/25 06:58:32;;;;;;;1.93;1.13;;;;;;;6.51;65.33;97753.13;5038887;27;103640;-71
2023/02/25 07:01:00;;;;;;;3.20;1.30;;;;;;;6.45;64.77;97756.19;5039598;27;103262;-72
2023/02/25 07:03:29;;;;;;;3.00;1.23;;;;;;;6.36;63.61;97753.25;5043536;27;103303;-71
2023/02/25 07:05:56;;;;;;;2.80;1.07;;;;;;;6.50;63.42;97761.94;5042188;27;102655;-73
2023/02/25 07:08:24;;;;;;;3.27;1.07;;;;;;;6.17;64.02;97758.13;5043240;27;103929;-73
2023/02/25 07:10:55;;;;;;;3.83;1.10;;;;;;;5.95;65.35;97765.75;5044167;27;104432;-73
2023/02/25 07:13:23;;;;;;;1.83;0.90;;;;;;;6.05;64.97;97766.81;5048529;27;103439;-80
2023/02/25 07:15:51;;;;;;;1.70;1.00;;;;;;;6.35;65.79;97756.81;5040668;27;102611;-72
2023/02/25 07:18:19;;;;;;;3.33;1.93;;;;;;;6.31;64.21;97772.88;5038105;27;102808;-73
2023/02/25 07:20:48;;;;;;;1.43;0.90;;;;;;;6.62;63.25;97771.56;5041370;27;103950;-73
2023/02/25 07:23:16;;;;;;;3.63;1.13;;;;;;;6.78;62.99;97772.16;5036026;27;102626;-72
2023/02/25 07:25:43;;;;;;;3.93;1.27;;;;;;;6.54;63.14;97779.16;5036800;27;102579;-73
2023/02/25 07:28:11;;;;;;;2.47;1.07;;;;;;;6.33;63.27;97779.69;5041706;27;104164;-74
2023/02/25 07:30:39;;;;;;;2.43;1.13;;;;;;;6.54;63.08;97779.16;5036353;27;103347;-71
2023/02/25 07:33:07;;;;;;;3.30;1.40;;;;;;;6.90;63.29;97776.53;5038162;27;103231;-71
2023/02/25 07:35:35;;;;;;;3.20;1.50;;;;;;;6.63;61.77;97783.72;5044786;27;102705;-80
2023/02/25 07:38:04;;;;;;;2.10;0.97;;;;;;;6.71;61.46;97779.63;5041814;27;102674;-80
2023/02/25 07:40:32;;;;;;;2.67;1.40;;;;;;;6.56;61.25;97785.97;5041306;27;103229;-85
2023/02/25 07:43:00;;;;;;;4.17;1.53;;;;;;;6.22;61.41;97778.75;5038228;27;103227;-84
2023/02/25 07:45:27;;;;;;;2.17;1.17;;;;;;;6.04;61.93;97778.25;5038105;27;102581;-86
2023/02/25 07:47:57;;;;;;;3.90;1.50;;;;;;;6.43;61.75;97775.47;5048306;27;102776;-79
2023/02/25 07:50:27;;;;;;;7.00;1.10;;;;;;;6.79;61.05;97768.59;5044328;27;103256;-75
2023/02/25 07:52:55;;;;;;;3.27;0.93;;;;;;;6.80;60.14;97776.34;5037794;27;104036;-71
2023/02/25 07:55:24;;;;;;;4.90;1.30;;;;;;;6.93;61.93;97776.31;5034939;27;102623;-70
2023/02/25 07:57:52;;;;;;;4.00;1.10;;;;;;;6.96;60.05;97776.09;5036425;27;103881;-75
2023/02/25 08:00:20;;;;;;;3.53;1.33;;;;;;;6.59;60.64;97772.63;5042179;27;103446;-75
2023/02/25 08:02:48;;;;;;;3.80;0.97;;;;;;;6.63;60.93;97767.97;5039379;27;102625;-72
2023/02/25 08:05:21;;;;;;;3.03;1.27;;;;;;;6.83;59.99;97770.88;5033119;27;102662;-75
2023/02/25 08:07:49;;;;;;;2.13;0.80;;;;;;;6.91;60.76;97773.78;5033717;27;102702;-77
2023/02/25 08:10:18;;;;;;;3.53;0.97;;;;;;;6.43;60.03;97772.84;5036814;27;103392;-77
2023/02/25 08:12:47;;;;;;;3.67;0.80;;;;;;;6.60;60.13;97783.94;5040036;27;103197;-77
2023/02/25 08:15:15;;;;;;;2.60;1.00;;;;;;;6.91;59.53;97772.94;5041378;27;102525;-76
2023/02/25 08:17:43;;;;;;;3.43;1.00;;;;;;;7.00;58.67;97774.91;5036981;27;102589;-72
2023/02/25 08:20:12;;;;;;;1.53;0.80;;;;;;;7.26;58.69;97779.13;5040985;27;103645;-74
2023/02/25 08:22:40;;;;;;;4.00;1.13;;;;;;;6.85;58.61;97773.38;5037216;27;103169;-73
2023/02/25 08:25:09;;;;;;;3.47;1.10;;;;;;;7.13;59.49;97773.06;5040719;27;102635;-73
2023/02/25 08:27:37;;;;;;;4.90;1.10;;;;;;;7.18;58.93;97780.63;5037250;27;102781;-74
2023/02/25 08:30:10;;;;;;;1.90;0.97;;;;;;;7.49;58.86;97790.56;5036204;27;103347;-73
2023/02/25 08:32:40;;;;;;;5.10;1.20;;;;;;;7.51;58.33;97778.97;5039541;27;103262;-73
2023/02/25 08:35:09;;;;;;;4.80;1.23;;;;;;;7.27;57.65;97790.47;5038523;27;102752;-72
2023/02/25 08:37:37;;;;;;;2.50;1.10;;;;;;;7.59;56.41;97779.25;5041468;27;103032;-73
2023/02/25 08:40:09;;;;;;;2.00;1.00;;;;;;;7.77;57.46;97777.03;5038034;27;103200;-73
2023/02/25 08:42:36;;;;;;;4.30;1.20;;;;;;;7.59;56.12;97773.16;5044495;27;103055;-74
2023/02/25 08:45:05;;;;;;;4.00;1.23;;;;;;;7.59;56.30;97771.38;5049272;27;102761;-73
2023/02/25 08:47:34;;;;;;;2.90;1.10;;;;;;;7.99;56.92;97765.72;5037000;27;104358;-73
2023/02/25 08:50:04;;;;;;;4.13;1.40;;;;;;;7.55;55.39;97774.34;5039987;27;103537;-72
2023/02/25 08:52:34;;;;;;;4.53;1.53;;;;;;;7.39;55.62;97774.63;5038672;27;103143;-72
2023/02/25 08:55:03;;;;;;;2.20;1.00;;;;;;;7.64;54.47;97772.78;5036471;27;103371;-74
2023/02/25 08:57:31;;;;;;;3.67;1.30;;;;;;;7.53;54.33;97769.19;5040887;27;102569;-74
2023/02/25 08:59:59;;;;;;;4.37;1.20;;;;;;;7.68;53.38;97774.25;5037783;27;103511;-78
2023/02/25 09:02:27;;;;;;;4.30;1.10;;;;;;;7.69;54.02;97773.31;5035239;27;103219;-78
2023/02/25 09:04:56;;;;;;;1.77;1.17;;;;;;;7.86;54.45;97775.50;5039031;27;102949;-75
2023/02/25 09:07:26;;;;;;;2.80;1.03;;;;;;;7.96;53.12;97779.94;5032681;27;103280;-77
2023/02/25 09:09:54;;;;;;;3.17;1.03;;;;;;;7.84;53.65;97774.75;5049360;27;104003;-81
2023/02/25 09:12:22;;;;;;;2.50;1.17;;;;;;;8.06;54.15;97764.28;5051707;27;103247;-76
2023/02/25 09:14:51;;;;;;;3.37;1.23;;;;;;;7.64;53.98;97772.78;5041493;27;102794;-76
2023/02/25 09:17:19;;;;;;;4.37;1.03;;;;;;;8.14;54.20;97767.16;5054682;27;103722;-76
2023/02/25 09:19:47;;;;;;;2.17;0.90;;;;;;;8.27;52.63;97767.94;5053565;27;103353;-75
2023/02/25 09:22:18;;;;;;;3.47;1.03;;;;;;;8.29;51.64;97770.44;5052089;27;103209;-79
2023/02/25 09:24:46;;;;;;;3.20;1.10;;;;;;;8.41;52.65;97759.81;5038870;27;102734;-74
2023/02/25 09:27:14;;;;;;;2.77;1.30;;;;;;;8.44;51.55;97775.38;5047411;27;103472;-74
2023/02/25 09:29:42;;;;;;;3.47;1.07;;;;;;;8.14;51.51;97761.91;5051628;27;103223;-75
2023/02/25 09:32:17;;;;;;;3.17;1.30;;;;;;;8.43;52.19;97763.16;5056983;27;103289;-75
2023/02/25 09:34:47;;;;;;;3.60;1.23;;;;;;;8.97;51.28;97767.63;5050239;27;102634;-74
2023/02/25 09:37:18;;;;;;;4.73;0.93;;;;;;;8.98;50.66;97759.59;5054710;27;103026;-73
2023/02/25 09:39:46;;;;;;;6.30;1.23;;;;;;;8.90;50.96;97754.09;5044600;27;103362;-75
2023/02/25 09:42:19;;;;;;;2.87;1.50;;;;;;;8.77;52.39;97760.47;5051851;27;103319;-75
2023/02/25 09:44:52;;;;;;;3.77;1.30;;;;;;;9.11;50.79;97759.47;5053743;27;102593;-74
2023/02/25 09:47:26;;;;;;;2.73;0.83;;;;;;;9.10;50.30;97765.69;5060358;27;102780;-75
2023/02/25 09:49:58;;;;;;;2.30;0.87;;;;;;;8.89;49.46;97754.25;5057103;27;103220;-74
2023/02/25 09:52:31;;;;;;;2.97;0.83;;;;;;;8.85;49.11;97753.66;5056930;27;102521;-74
2023/02/25 09:55:03;;;;;;;1.70;0.80;;;;;;;8.89;49.98;97765.63;5055767;27;102561;-74
2023/02/25 09:57:40;;;;;;;2.03;0.70;;;;;;;8.21;49.85;97767.53;5050016;27;103798;-74
2023/02/25 10:00:17;;;;;;;0.57;0.57;;;;;;;8.13;50.12;97765.50;5052753;27;103234;-75
2023/02/25 10:02:51;;;;;;;3.17;0.70;;;;;;;7.51;50.35;97776.34;5053960;27;103149;-75
2023/02/25 10:05:26;;;;;;;2.67;0.73;;;;;;;7.66;50.51;97771.75;5051937;27;102543;-74
2023/02/25 10:08:09;;;;;;;2.17;0.80;;;;;;;7.92;50.09;97769.75;5048306;27;104192;-74
2023/02/25 10:10:45;;;;;;;1.47;0.73;;;;;;;8.28;49.73;97763.53;5056939;27;103966;-75
2023/02/25 10:13:24;;;;;;;1.30;0.50;;;;;;;7.84;50.37;97774.75;5065579;27;103138;-74
2023/02/25 10:16:02;;;;;;;1.23;0.57;;;;;;;8.11;50.13;97764.78;5057208;27;102530;-74
2023/02/25 10:18:44;;;;;;;3.77;0.87;;;;;;;7.93;50.59;97774.91;5061079;27;103456;-75
2023/02/25 10:21:27;;;;;;;3.03;0.80;;;;;;;8.04;51.14;97777.56;5055563;27;103405;-74
2023/02/25 10:24:12;;;;;;;0.97;0.50;;;;;;;8.43;50.66;97763.16;5053642;27;103230;-75
2023/02/25 10:26:46;;;;;;;1.87;0.70;;;;;;;8.16;49.53;97765.28;5051396;27;102593;-74
2023/02/25 10:29:21;;;;;;;1.73;0.60;;;;;;;8.28;48.47;97766.16;5052136;27;103867;-74
2023/02/25 10:31:49;;;;;;;1.93;0.67;;;;;;;8.51;50.85;97762.53;5054050;27;104384;-75
2023/02/25 10:34:22;;;;;;;0.60;0.50;;;;;;;7.70;49.95;97761.81;5060760;27;104163;-74
2023/02/25 10:36:55;;;;;;;1.20;0.57;;;;;;;8.31;50.09;97758.03;5059222;27;102666;-75
2023/02/25 10:39:26;;;;;;;0.80;0.50;;;;;;;8.43;49.76;97755.25;5053987;27;104207;-74
2023/02/25 10:41:55;;;;;;;2.50;0.77;;;;;;;8.00;50.12;97746.38;5051992;27;103240;-74
2023/02/25 10:44:22;;;;;;;1.70;0.87;;;;;;;7.89;49.95;97751.56;5052685;27;104194;-74
2023/02/25 10:46:55;;;;;;;2.73;0.80;;;;;;;7.69;49.70;97747.03;5047980;27;102720;-71
2023/02/25 10:49:25;;;;;;;3.00;1.10;;;;;;;8.09;50.84;97743.00;5049819;27;103119;-71
2023/02/25 10:52:01;;;;;;;2.30;0.80;;;;;;;7.49;51.60;97744.06;5051584;27;104291;-70
2023/02/25 10:54:33;;;;;;;3.17;0.87;;;;;;;7.98;50.61;97735.94;5050145;27;103172;-73
2023/02/25 10:57:08;;;;;;;1.97;0.87;;;;;;;8.21;51.14;97725.44;5048949;27;102716;-74
2023/02/25 10:59:39;;;;;;;2.03;1.17;;;;;;;8.02;51.30;97729.50;5062215;27;103961;-76
2023/02/25 11:02:22;;;;;;;1.57;0.70;;;;;;;8.59;49.91;97728.53;5046827;27;103336;-74
2023/02/25 11:04:51;;;;;;;1.47;0.87;;;;;;;8.65;49.59;97731.53;5046988;27;103207;-74
2023/02/25 11:07:28;;;;;;;1.93;0.87;;;;;;;9.66;49.14;97727.59;5049762;27;103250;-74
2023/02/25 11:10:15;;;;;;;2.43;0.70;;;;;;;8.43;49.87;97741.25;5048706;27;103011;-74
2023/02/25 11:12:45;;;;;;;2.80;1.20;;;;;;;8.96;49.96;97729.91;5053900;27;103440;-74
2023/02/25 11:15:29;;;;;;;2.20;1.20;;;;;;;8.74;50.09;97725.53;5046506;27;103217;-73
2023/02/25 11:18:19;;;;;;;2.07;0.90;;;;;;;8.72;49.97;97727.47;5045554;27;103089;-73
2023/02/25 11:20:54;;;;;;;9.53;1.70;;;;;;;8.33;51.56;97732.41;5049126;27;102706;-77
2023/02/25 11:23:24;;;;;;;2.13;1.00;;;;;;;8.61;51.45;97731.91;5052603;27;104148;-73
2023/02/25 11:25:56;;;;;;;1.97;1.10;;;;;;;8.66;50.58;97727.97;5050509;27;103253;-74
2023/02/25 11:28:30;;;;;;;4.00;0.90;;;;;;;8.46;50.14;97717.31;5050547;27;102684;-75
2023/02/25 11:31:15;;;;;;;3.90;1.77;;;;;;;8.54;52.20;97738.59;5048949;27;102915;-74
2023/02/25 11:33:50;;;;;;;2.00;0.97;;;;;;;7.91;51.59;97721.59;5049171;27;104184;-75
2023/02/25 11:36:22;;;;;;;3.17;1.20;;;;;;;7.40;53.67;97733.44;5045826;27;103042;-74
2023/02/25 11:39:07;;;;;;;1.30;0.90;;;;;;;7.65;52.64;97737.69;5048630;27;102681;-74
2023/02/25 11:41:36;;;;;;;5.53;1.20;;;;;;;8.05;53.24;97736.31;5050297;27;103961;-73
2023/02/25 11:44:29;;;;;;;2.63;1.30;;;;;;;8.30;53.55;97736.13;5044410;27;104082;-74
2023/02/25 11:47:01;;;;;;;3.37;1.20;;;;;;;8.00;52.40;97734.03;5040042;27;104345;-76
2023/02/25 11:49:42;;;;;;;2.70;1.00;;;;;;;8.23;52.48;97728.78;5050601;27;102628;-72
2023/02/25 11:52:20;;;;;;;2.93;1.10;;;;;;;8.16;52.87;97733.69;5049147;27;102729;-74
2023/02/25 11:54:58;;;;;;;3.10;1.60;;;;;;;8.62;52.25;97730.94;5049214;27;103750;-72